sensor_id;sensor_type;location;lat;lon;timestamp;pressure;altitude;pressure_sealevel;temperature;humidity
78354;BME280;67629;46.040;18.232;2023-02-28T00:00:28;100776.63;;;-0.27;94.34
78354;BME280;67629;46.040;18.232;2023-02-28T00:01:14;100775.94;;;-0.29;93.87
78354;BME280;67629;46.040;18.232;2023-02-28T00:01:55;100766.88;;;-0.28;94.93
78354;BME280;67629;46.040;18.232;2023-02-28T00:04:29;100775.75;;;-0.18;94.66
78354;BME280;67629;46.040;18.232;2023-02-28T00:05:50;100774.34;;;-0.22;94.87
78354;BME280;67629;46.040;18.232;2023-02-28T00:07:11;100769.72;;;-0.30;94.51
78354;BME280;67629;46.040;18.232;2023-02-28T00:07:54;100779.72;;;-0.22;94.65
78354;BME280;67629;46.040;18.232;2023-02-28T00:08:37;100780.13;;;-0.17;94.29
78354;BME280;67629;46.040;18.232;2023-02-28T00:09:19;100784.09;;;-0.21;94.60
78354;BME280;67629;46.040;18.232;2023-02-28T00:10:12;100782.81;;;-0.17;94.58
78354;BME280;67629;46.040;18.232;2023-02-28T00:10:54;100775.31;;;-0.14;94.31
78354;BME280;67629;46.040;18.232;2023-02-28T00:11:33;100778.28;;;-0.17;94.09
78354;BME280;67629;46.040;18.232;2023-02-28T00:12:13;100778.03;;;-0.23;94.41
78354;BME280;67629;46.040;18.232;2023-02-28T00:13:01;100780.44;;;-0.20;94.19
78354;BME280;67629;46.040;18.232;2023-02-28T00:13:44;100781.69;;;-0.15;93.44
78354;BME280;67629;46.040;18.232;2023-02-28T00:14:25;100779.31;;;-0.27;94.13
78354;BME280;67629;46.040;18.232;2023-02-28T00:15:12;100782.69;;;-0.25;93.64
78354;BME280;67629;46.040;18.232;2023-02-28T00:16:03;100784.69;;;-0.27;93.81
78354;BME280;67629;46.040;18.232;2023-02-28T00:16:53;100778.91;;;-0.32;93.78
78354;BME280;67629;46.040;18.232;2023-02-28T00:17:34;100776.06;;;-0.31;93.75
78354;BME280;67629;46.040;18.232;2023-02-28T00:21:00;100783.13;;;-0.30;94.19
78354;BME280;67629;46.040;18.232;2023-02-28T00:22:30;100781.53;;;-0.23;94.61
78354;BME280;67629;46.040;18.232;2023-02-28T00:24:16;100777.22;;;-0.33;93.89
78354;BME280;67629;46.040;18.232;2023-02-28T00:25:35;100775.94;;;-0.29;94.16
78354;BME280;67629;46.040;18.232;2023-02-28T00:26:54;100779.72;;;-0.22;93.85
78354;BME280;67629;46.040;18.232;2023-02-28T00:28:37;100777.78;;;-0.30;93.91
78354;BME280;67629;46.040;18.232;2023-02-28T00:30:37;100783.69;;;-0.26;93.76
78354;BME280;67629;46.040;18.232;2023-02-28T00:32:40;100777.91;;;-0.31;93.47
78354;BME280;67629;46.040;18.232;2023-02-28T00:34:42;100791.47;;;-0.33;94.14
78354;BME280;67629;46.040;18.232;2023-02-28T00:40:08;100790.75;;;-0.25;93.88
78354;BME280;67629;46.040;18.232;2023-02-28T00:41:51;100788.50;;;-0.30;93.60
78354;BME280;67629;46.040;18.232;2023-02-28T00:43:10;100794.00;;;-0.31;94.16
78354;BME280;67629;46.040;18.232;2023-02-28T00:44:35;100797.84;;;-0.34;94.33
78354;BME280;67629;46.040;18.232;2023-02-28T00:45:54;100783.88;;;-0.37;93.82
78354;BME280;67629;46.040;18.232;2023-02-28T00:46:58;100798.84;;;-0.35;94.29
78354;BME280;67629;46.040;18.232;2023-02-28T00:47:41;100801.53;;;-0.35;94.14
78354;BME280;67629;46.040;18.232;2023-02-28T00:48:22;100805.19;;;-0.36;93.94
78354;BME280;67629;46.040;18.232;2023-02-28T00:49:15;100797.13;;;-0.26;93.56
78354;BME280;67629;46.040;18.232;2023-02-28T00:50:02;100809.97;;;-0.30;93.88
78354;BME280;67629;46.040;18.232;2023-02-28T00:50:49;100814.22;;;-0.27;94.13
78354;BME280;67629;46.040;18.232;2023-02-28T00:52:10;100808.28;;;-0.31;94.00
78354;BME280;67629;46.040;18.232;2023-02-28T00:52:49;100798.09;;;-0.27;93.61
78354;BME280;67629;46.040;18.232;2023-02-28T00:53:31;100798.97;;;-0.27;93.76
78354;BME280;67629;46.040;18.232;2023-02-28T00:54:16;100806.66;;;-0.14;93.67
78354;BME280;67629;46.040;18.232;2023-02-28T00:56:27;100801.59;;;-0.17;93.52
78354;BME280;67629;46.040;18.232;2023-02-28T00:57:30;100802.34;;;-0.34;93.57
78354;BME280;67629;46.040;18.232;2023-02-28T00:58:20;100808.28;;;-0.31;93.85
78354;BME280;67629;46.040;18.232;2023-02-28T00:59:02;100795.81;;;-0.22;93.58
78354;BME280;67629;46.040;18.232;2023-02-28T00:59:44;100801.25;;;-0.32;93.91
78354;BME280;67629;46.040;18.232;2023-02-28T01:00:48;100795.97;;;-0.24;93.70
78354;BME280;67629;46.040;18.232;2023-02-28T01:03:10;100802.91;;;-0.31;93.61
78354;BME280;67629;46.040;18.232;2023-02-28T01:03:50;100795.41;;;-0.27;93.52
78354;BME280;67629;46.040;18.232;2023-02-28T01:05:08;100803.47;;;-0.27;93.04
78354;BME280;67629;46.040;18.232;2023-02-28T01:05:47;100802.06;;;-0.31;93.34
78354;BME280;67629;46.040;18.232;2023-02-28T01:06:27;100803.94;;;-0.32;93.24
78354;BME280;67629;46.040;18.232;2023-02-28T01:07:31;100810.84;;;-0.29;93.52
78354;BME280;67629;46.040;18.232;2023-02-28T01:10:12;100800.09;;;-0.29;93.06
78354;BME280;67629;46.040;18.232;2023-02-28T01:11:35;100795.72;;;-0.30;92.79
78354;BME280;67629;46.040;18.232;2023-02-28T01:12:56;100794.16;;;-0.33;93.56
78354;BME280;67629;46.040;18.232;2023-02-28T01:13:48;100791.47;;;-0.33;93.48
78354;BME280;67629;46.040;18.232;2023-02-28T01:14:32;100799.66;;;-0.34;93.33
78354;BME280;67629;46.040;18.232;2023-02-28T01:16:40;100791.63;;;-0.34;92.81
78354;BME280;67629;46.040;18.232;2023-02-28T01:18:01;100789.19;;;-0.28;93.66
78354;BME280;67629;46.040;18.232;2023-02-28T01:18:43;100797.53;;;-0.31;93.68
78354;BME280;67629;46.040;18.232;2023-02-28T01:19:31;100795.03;;;-0.32;92.80
78354;BME280;67629;46.040;18.232;2023-02-28T01:20:13;100798.97;;;-0.36;92.99
78354;BME280;67629;46.040;18.232;2023-02-28T01:21:03;100796.28;;;-0.27;93.23
78354;BME280;67629;46.040;18.232;2023-02-28T01:21:42;100797.53;;;-0.31;92.75
78354;BME280;67629;46.040;18.232;2023-02-28T01:22:34;100805.03;;;-0.34;93.07
78354;BME280;67629;46.040;18.232;2023-02-28T01:23:18;100789.66;;;-0.32;93.15
78354;BME280;67629;46.040;18.232;2023-02-28T01:23:58;100789.47;;;-0.21;93.43
78354;BME280;67629;46.040;18.232;2023-02-28T01:24:40;100802.34;;;-0.34;93.68
78354;BME280;67629;46.040;18.232;2023-02-28T01:25:20;100792.75;;;-0.37;93.56
78354;BME280;67629;46.040;18.232;2023-02-28T01:27:19;100795.72;;;-0.40;93.44
78354;BME280;67629;46.040;18.232;2023-02-28T01:28:43;100788.25;;;-0.46;93.83
78354;BME280;67629;46.040;18.232;2023-02-28T01:30:25;100788.53;;;-0.39;93.63
78354;BME280;67629;46.040;18.232;2023-02-28T01:32:14;100786.97;;;-0.42;93.33
78354;BME280;67629;46.040;18.232;2023-02-28T01:34:16;100787.66;;;-0.30;93.23
78354;BME280;67629;46.040;18.232;2023-02-28T01:35:40;100781.03;;;-0.36;93.08
78354;BME280;67629;46.040;18.232;2023-02-28T01:36:22;100787.28;;;-0.45;92.46
78354;BME280;67629;46.040;18.232;2023-02-28T01:37:15;100787.84;;;-0.41;93.16
78354;BME280;67629;46.040;18.232;2023-02-28T01:37:58;100777.94;;;-0.41;92.36
78354;BME280;67629;46.040;18.232;2023-02-28T01:39:35;100776.69;;;-0.46;92.29
78354;BME280;67629;46.040;18.232;2023-02-28T01:40:17;100770.31;;;-0.45;92.12
78354;BME280;67629;46.040;18.232;2023-02-28T01:40:57;100778.94;;;-0.42;92.89
78354;BME280;67629;46.040;18.232;2023-02-28T01:42:00;100780.63;;;-0.41;92.92
78354;BME280;67629;46.040;18.232;2023-02-28T01:44:04;100784.03;;;-0.48;92.25
78354;BME280;67629;46.040;18.232;2023-02-28T01:45:36;100784.03;;;-0.48;93.01
78354;BME280;67629;46.040;18.232;2023-02-28T01:46:10;100784.88;;;-0.48;92.87
78354;BME280;67629;46.040;18.232;2023-02-28T01:47:54;100781.50;;;-0.50;93.15
78354;BME280;67629;46.040;18.232;2023-02-28T01:49:16;100787.97;;;-0.43;92.95
78354;BME280;67629;46.040;18.232;2023-02-28T01:50:22;100782.75;;;-0.44;92.62
78354;BME280;67629;46.040;18.232;2023-02-28T01:51:49;100776.41;;;-0.43;92.54
78354;BME280;67629;46.040;18.232;2023-02-28T01:53:45;100788.84;;;-0.52;92.69
78354;BME280;67629;46.040;18.232;2023-02-28T01:55:51;100787.16;;;-0.53;92.77
78354;BME280;67629;46.040;18.232;2023-02-28T01:57:21;100787.00;;;-0.51;93.31
78354;BME280;67629;46.040;18.232;2023-02-28T01:58:06;100779.50;;;-0.48;92.92
78354;BME280;67629;46.040;18.232;2023-02-28T01:58:52;100776.41;;;-0.43;92.64
78354;BME280;67629;46.040;18.232;2023-02-28T01:59:49;100783.03;;;-0.47;92.73
78354;BME280;67629;46.040;18.232;2023-02-28T02:00:45;100786.00;;;-0.50;92.53
78354;BME280;67629;46.040;18.232;2023-02-28T02:01:29;100778.81;;;-0.40;92.36
78354;BME280;67629;46.040;18.232;2023-02-28T02:02:10;100778.38;;;-0.45;91.92
78354;BME280;67629;46.040;18.232;2023-02-28T02:02:54;100777.84;;;-0.49;92.72
78354;BME280;67629;46.040;18.232;2023-02-28T02:05:29;100782.06;;;-0.46;91.92
78354;BME280;67629;46.040;18.232;2023-02-28T02:09:46;100776.81;;;-0.48;92.10
78354;BME280;67629;46.040;18.232;2023-02-28T02:10:36;100776.97;;;-0.49;92.59
78354;BME280;67629;46.040;18.232;2023-02-28T02:11:21;100773.44;;;-0.50;92.13
78354;BME280;67629;46.040;18.232;2023-02-28T02:16:08;100774.88;;;-0.55;91.97
78354;BME280;67629;46.040;18.232;2023-02-28T02:17:20;100771.34;;;-0.56;92.17
78354;BME280;67629;46.040;18.232;2023-02-28T02:18:14;100764.25;;;-0.47;92.29
78354;BME280;67629;46.040;18.232;2023-02-28T02:23:20;100763.59;;;-0.59;92.27
78354;BME280;67629;46.040;18.232;2023-02-28T02:25:44;100768.94;;;-0.59;91.93
78354;BME280;67629;46.040;18.232;2023-02-28T02:42:28;100783.50;;;-0.52;93.20
78354;BME280;67629;46.040;18.232;2023-02-28T02:47:15;100774.72;;;-0.54;91.74
78354;BME280;67629;46.040;18.232;2023-02-28T02:51:13;100779.69;;;-0.59;92.15
78354;BME280;67629;46.040;18.232;2023-02-28T02:51:56;100783.63;;;-0.63;92.73
78354;BME280;67629;46.040;18.232;2023-02-28T02:52:45;100782.22;;;-0.57;92.63
78354;BME280;67629;46.040;18.232;2023-02-28T02:56:08;100786.88;;;-0.60;92.68
78354;BME280;67629;46.040;18.232;2023-02-28T02:57:14;100783.50;;;-0.52;92.55
78354;BME280;67629;46.040;18.232;2023-02-28T02:58:38;100786.00;;;-0.50;92.30
78354;BME280;67629;46.040;18.232;2023-02-28T03:00:10;100786.75;;;-0.58;91.68
78354;BME280;67629;46.040;18.232;2023-02-28T03:00:54;100785.59;;;-0.55;91.89
78354;BME280;67629;46.040;18.232;2023-02-28T03:01:37;100781.78;;;-0.63;92.12
78354;BME280;67629;46.040;18.232;2023-02-28T03:02:32;100794.50;;;-0.55;91.67
78354;BME280;67629;46.040;18.232;2023-02-28T03:03:13;100788.56;;;-0.59;91.77
78354;BME280;67629;46.040;18.232;2023-02-28T03:04:43;100782.81;;;-0.64;91.40
78354;BME280;67629;46.040;18.232;2023-02-28T03:05:39;100782.06;;;-0.56;91.33
78354;BME280;67629;46.040;18.232;2023-02-28T03:06:28;100777.44;;;-0.64;91.09
78354;BME280;67629;46.040;18.232;2023-02-28T03:07:07;100781.94;;;-0.64;91.79
78354;BME280;67629;46.040;18.232;2023-02-28T03:07:46;100777.13;;;-0.51;91.53
78354;BME280;67629;46.040;18.232;2023-02-28T03:08:34;100785.59;;;-0.55;91.86
78354;BME280;67629;46.040;18.232;2023-02-28T03:11:58;100782.34;;;-0.59;91.73
78354;BME280;67629;46.040;18.232;2023-02-28T03:15:32;100785.72;;;-0.47;90.78
78354;BME280;67629;46.040;18.232;2023-02-28T03:17:09;100788.00;;;-0.52;90.67
78354;BME280;67629;46.040;18.232;2023-02-28T03:21:12;100782.19;;;-0.48;90.08
78354;BME280;67629;46.040;18.232;2023-02-28T03:23:10;100776.41;;;-0.43;90.78
78354;BME280;67629;46.040;18.232;2023-02-28T03:25:51;100784.03;;;-0.48;90.11
78354;BME280;67629;46.040;18.232;2023-02-28T03:27:35;100778.38;;;-0.45;90.16
78354;BME280;67629;46.040;18.232;2023-02-28T03:29:23;100782.47;;;-0.51;90.55
78354;BME280;67629;46.040;18.232;2023-02-28T03:37:48;100795.78;;;-0.49;90.48
78354;BME280;67629;46.040;18.232;2023-02-28T03:40:17;100800.97;;;-0.38;89.68
78354;BME280;67629;46.040;18.232;2023-02-28T03:43:25;100815.25;;;-0.47;89.51
78354;BME280;67629;46.040;18.232;2023-02-28T03:44:55;100813.41;;;-0.47;90.52
78354;BME280;67629;46.040;18.232;2023-02-28T03:46:24;100814.69;;;-0.51;90.46
78354;BME280;67629;46.040;18.232;2023-02-28T03:48:13;100817.41;;;-0.61;90.01
78354;BME280;67629;46.040;18.232;2023-02-28T03:50:08;100819.06;;;-0.60;90.15
78354;BME280;67629;46.040;18.232;2023-02-28T03:52:40;100815.13;;;-0.55;89.88
78354;BME280;67629;46.040;18.232;2023-02-28T03:53:42;100812.31;;;-0.64;89.59
78354;BME280;67629;46.040;18.232;2023-02-28T04:00:12;100810.31;;;-0.71;90.04
78354;BME280;67629;46.040;18.232;2023-02-28T04:01:43;100807.81;;;-0.73;89.64
78354;BME280;67629;46.040;18.232;2023-02-28T04:03:08;100809.19;;;-0.69;91.12
78354;BME280;67629;46.040;18.232;2023-02-28T04:04:26;100811.88;;;-0.69;90.87
78354;BME280;67629;46.040;18.232;2023-02-28T04:06:51;100817.53;;;-0.72;90.43
78354;BME280;67629;46.040;18.232;2023-02-28T04:07:32;100809.78;;;-0.75;89.66
78354;BME280;67629;46.040;18.232;2023-02-28T04:08:52;100816.13;;;-0.76;90.96
78354;BME280;67629;46.040;18.232;2023-02-28T04:09:32;100815.84;;;-0.73;90.25
78354;BME280;67629;46.040;18.232;2023-02-28T04:10:16;100812.47;;;-0.75;90.42
78354;BME280;67629;46.040;18.232;2023-02-28T04:12:17;100810.59;;;-0.74;90.86
78354;BME280;67629;46.040;18.232;2023-02-28T04:14:55;100806.66;;;-0.70;91.39
78354;BME280;67629;46.040;18.232;2023-02-28T04:16:39;100806.78;;;-0.72;90.28
78354;BME280;67629;46.040;18.232;2023-02-28T04:19:39;100805.81;;;-0.71;90.52
78354;BME280;67629;46.040;18.232;2023-02-28T04:21:01;100800.03;;;-0.76;90.62
78354;BME280;67629;46.040;18.232;2023-02-28T04:22:47;100798.34;;;-0.77;90.27
78354;BME280;67629;46.040;18.232;2023-02-28T04:24:46;100803.69;;;-0.77;90.18
78354;BME280;67629;46.040;18.232;2023-02-28T04:28:28;100798.09;;;-0.83;90.43
78354;BME280;67629;46.040;18.232;2023-02-28T04:29:10;100798.50;;;-0.78;90.26
78354;BME280;67629;46.040;18.232;2023-02-28T04:29:54;100799.47;;;-0.79;90.95
78354;BME280;67629;46.040;18.232;2023-02-28T04:30:37;100803.28;;;-0.82;91.12
78354;BME280;67629;46.040;18.232;2023-02-28T04:31:17;100799.75;;;-0.73;90.39
78354;BME280;67629;46.040;18.232;2023-02-28T04:31:57;100809.34;;;-0.80;90.83
78354;BME280;67629;46.040;18.232;2023-02-28T04:34:04;100797.91;;;-0.82;90.15
78354;BME280;67629;46.040;18.232;2023-02-28T04:36:58;100796.09;;;-0.81;90.62
78354;BME280;67629;46.040;18.232;2023-02-28T04:38:36;100805.69;;;-0.69;90.14
78354;BME280;67629;46.040;18.232;2023-02-28T04:39:58;100808.66;;;-0.72;90.62
78354;BME280;67629;46.040;18.232;2023-02-28T04:40:40;100804.69;;;-0.87;90.15
78354;BME280;67629;46.040;18.232;2023-02-28T04:41:23;100803.56;;;-0.85;89.92
78354;BME280;67629;46.040;18.232;2023-02-28T04:42:04;100801.03;;;-0.86;90.59
78354;BME280;67629;46.040;18.232;2023-02-28T04:43:26;100798.91;;;-0.73;90.52
78354;BME280;67629;46.040;18.232;2023-02-28T04:44:06;100795.38;;;-0.74;90.55
78354;BME280;67629;46.040;18.232;2023-02-28T04:44:46;100805.25;;;-0.74;90.67
78354;BME280;67629;46.040;18.232;2023-02-28T04:45:34;100793.69;;;-0.75;90.42
78354;BME280;67629;46.040;18.232;2023-02-28T04:46:17;100798.75;;;-0.72;89.85
78354;BME280;67629;46.040;18.232;2023-02-28T04:46:57;100796.50;;;-0.76;90.81
78354;BME280;67629;46.040;18.232;2023-02-28T04:47:36;100784.50;;;-0.82;89.92
78354;BME280;67629;46.040;18.232;2023-02-28T04:48:58;100786.63;;;-0.76;89.83
78354;BME280;67629;46.040;18.232;2023-02-28T04:49:48;100789.72;;;-0.80;90.33
78354;BME280;67629;46.040;18.232;2023-02-28T04:50:52;100792.28;;;-0.79;90.90
78354;BME280;67629;46.040;18.232;2023-02-28T04:52:51;100798.63;;;-0.80;90.36
78354;BME280;67629;46.040;18.232;2023-02-28T04:54:10;100795.81;;;-0.88;90.56
78354;BME280;67629;46.040;18.232;2023-02-28T04:55:30;100794.97;;;-0.79;89.78
78354;BME280;67629;46.040;18.232;2023-02-28T04:56:15;100794.66;;;-0.85;90.09
78354;BME280;67629;46.040;18.232;2023-02-28T04:56:55;100795.25;;;-0.82;90.46
78354;BME280;67629;46.040;18.232;2023-02-28T04:57:36;100800.59;;;-0.82;90.77
78354;BME280;67629;46.040;18.232;2023-02-28T04:58:16;100800.31;;;-0.79;89.77
78354;BME280;67629;46.040;18.232;2023-02-28T05:00:27;100799.34;;;-0.87;90.23
78354;BME280;67629;46.040;18.232;2023-02-28T05:01:53;100801.75;;;-0.84;90.05
78354;BME280;67629;46.040;18.232;2023-02-28T05:02:34;100796.22;;;-0.83;90.60
78354;BME280;67629;46.040;18.232;2023-02-28T05:03:15;100797.22;;;-0.84;90.63
78354;BME280;67629;46.040;18.232;2023-02-28T05:03:58;100795.53;;;-0.85;90.43
78354;BME280;67629;46.040;18.232;2023-02-28T05:06:23;100800.75;;;-0.83;90.88
78354;BME280;67629;46.040;18.232;2023-02-28T05:08:08;100802.59;;;-0.93;90.12
78354;BME280;67629;46.040;18.232;2023-02-28T05:09:29;100800.47;;;-0.90;90.72
78354;BME280;67629;46.040;18.232;2023-02-28T05:10:17;100798.50;;;-0.88;89.67
78354;BME280;67629;46.040;18.232;2023-02-28T05:13:12;100803.69;;;-0.77;89.45
78354;BME280;67629;46.040;18.232;2023-02-28T05:15:21;100809.22;;;-0.78;89.09
78354;BME280;67629;46.040;18.232;2023-02-28T05:17:27;100819.09;;;-0.79;88.55
78354;BME280;67629;46.040;18.232;2023-02-28T05:19:33;100825.03;;;-0.75;89.66
78354;BME280;67629;46.040;18.232;2023-02-28T05:21:55;100826.00;;;-0.76;87.86
78354;BME280;67629;46.040;18.232;2023-02-28T05:24:35;100828.97;;;-0.79;88.50
78354;BME280;67629;46.040;18.232;2023-02-28T05:25:58;100829.97;;;-0.71;88.58
78354;BME280;67629;46.040;18.232;2023-02-28T05:28:08;100825.31;;;-0.88;88.26
78354;BME280;67629;46.040;18.232;2023-02-28T05:29:12;100825.88;;;-0.75;88.57
78354;BME280;67629;46.040;18.232;2023-02-28T05:30:34;100826.84;;;-0.76;88.42
78354;BME280;67629;46.040;18.232;2023-02-28T05:31:56;100824.59;;;-0.80;89.60
78354;BME280;67629;46.040;18.232;2023-02-28T05:32:38;100832.63;;;-0.71;87.81
78354;BME280;67629;46.040;18.232;2023-02-28T05:33:31;100831.66;;;-0.70;88.31
78354;BME280;67629;46.040;18.232;2023-02-28T05:34:11;100829.25;;;-0.73;88.42
78354;BME280;67629;46.040;18.232;2023-02-28T05:34:52;100836.47;;;-0.73;88.81
78354;BME280;67629;46.040;18.232;2023-02-28T05:35:38;100836.47;;;-0.73;89.11
78354;BME280;67629;46.040;18.232;2023-02-28T05:36:43;100838.28;;;-0.64;88.67
78354;BME280;67629;46.040;18.232;2023-02-28T05:39:26;100840.28;;;-0.76;88.79
78354;BME280;67629;46.040;18.232;2023-02-28T05:40:44;100842.22;;;-0.68;88.73
78354;BME280;67629;46.040;18.232;2023-02-28T05:43:09;100835.47;;;-0.82;88.85
78354;BME280;67629;46.040;18.232;2023-02-28T05:44:38;100829.81;;;-0.79;88.67
78354;BME280;67629;46.040;18.232;2023-02-28T05:46:06;100830.38;;;-0.66;88.78
78354;BME280;67629;46.040;18.232;2023-02-28T05:47:33;100834.47;;;-0.71;88.13
78354;BME280;67629;46.040;18.232;2023-02-28T05:48:21;100841.25;;;-0.77;88.23
78354;BME280;67629;46.040;18.232;2023-02-28T05:50:47;100849.44;;;-0.69;88.15
78354;BME280;67629;46.040;18.232;2023-02-28T05:52:56;100846.63;;;-0.77;88.53
78354;BME280;67629;46.040;18.232;2023-02-28T05:55:56;100844.22;;;-0.80;88.22
78354;BME280;67629;46.040;18.232;2023-02-28T05:57:16;100843.94;;;-0.67;88.58
78354;BME280;67629;46.040;18.232;2023-02-28T05:59:19;100856.09;;;-0.73;88.11
78354;BME280;67629;46.040;18.232;2023-02-28T06:00:53;100850.84;;;-0.65;87.92
78354;BME280;67629;46.040;18.232;2023-02-28T06:02:53;100863.00;;;-0.80;88.37
78354;BME280;67629;46.040;18.232;2023-02-28T06:05:16;100854.78;;;-0.69;88.01
78354;BME280;67629;46.040;18.232;2023-02-28T06:07:29;100846.22;;;-0.72;87.97
78354;BME280;67629;46.040;18.232;2023-02-28T06:09:34;100856.09;;;-0.73;88.61
78354;BME280;67629;46.040;18.232;2023-02-28T06:10:14;100854.66;;;-0.67;88.43
78354;BME280;67629;46.040;18.232;2023-02-28T06:12:50;100863.25;;;-0.54;88.86
78354;BME280;67629;46.040;18.232;2023-02-28T06:14:18;100859.72;;;-0.54;88.48
78354;BME280;67629;46.040;18.232;2023-02-28T06:16:34;100865.41;;;-0.57;88.00
78354;BME280;67629;46.040;18.232;2023-02-28T06:17:26;100870.78;;;-0.57;87.89
78354;BME280;67629;46.040;18.232;2023-02-28T06:18:05;100867.38;;;-0.69;87.74
78354;BME280;67629;46.040;18.232;2023-02-28T06:18:47;100862.28;;;-0.63;88.18
78354;BME280;67629;46.040;18.232;2023-02-28T06:19:29;100860.56;;;-0.54;88.66
78354;BME280;67629;46.040;18.232;2023-02-28T06:20:11;100862.28;;;-0.53;87.96
78354;BME280;67629;46.040;18.232;2023-02-28T06:22:41;100861.44;;;-0.53;88.65
78354;BME280;67629;46.040;18.232;2023-02-28T06:24:03;100859.03;;;-0.57;89.42
78354;BME280;67629;46.040;18.232;2023-02-28T06:25:47;100866.50;;;-0.60;88.36
78354;BME280;67629;46.040;18.232;2023-02-28T06:26:30;100868.66;;;-0.64;87.76
78354;BME280;67629;46.040;18.232;2023-02-28T06:27:17;100863.00;;;-0.61;87.83
78354;BME280;67629;46.040;18.232;2023-02-28T06:27:57;100864.81;;;-0.51;87.42
78354;BME280;67629;46.040;18.232;2023-02-28T06:28:37;100868.22;;;-0.49;88.34
78354;BME280;67629;46.040;18.232;2023-02-28T06:29:17;100873.13;;;-0.45;87.86
78354;BME280;67629;46.040;18.232;2023-02-28T06:29:59;100864.53;;;-0.48;88.52
78354;BME280;67629;46.040;18.232;2023-02-28T06:31:47;100864.81;;;-0.51;88.20
78354;BME280;67629;46.040;18.232;2023-02-28T06:32:29;100872.72;;;-0.60;87.93
78354;BME280;67629;46.040;18.232;2023-02-28T06:33:08;100874.28;;;-0.57;87.71
78354;BME280;67629;46.040;18.232;2023-02-28T06:34:02;100869.34;;;-0.52;87.63
78354;BME280;67629;46.040;18.232;2023-02-28T06:34:53;100869.34;;;-0.52;88.00
78354;BME280;67629;46.040;18.232;2023-02-28T06:35:34;100865.81;;;-0.62;87.99
78354;BME280;67629;46.040;18.232;2023-02-28T06:36:16;100871.59;;;-0.57;88.19
78354;BME280;67629;46.040;18.232;2023-02-28T06:36:56;100863.13;;;-0.52;88.18
78354;BME280;67629;46.040;18.232;2023-02-28T06:39:45;100869.63;;;-0.65;88.34
78354;BME280;67629;46.040;18.232;2023-02-28T06:41:50;100873.56;;;-0.59;88.70
78354;BME280;67629;46.040;18.232;2023-02-28T06:43:15;100877.13;;;-0.49;88.87
78354;BME280;67629;46.040;18.232;2023-02-28T06:43:56;100877.53;;;-0.53;88.51
78354;BME280;67629;46.040;18.232;2023-02-28T06:44:43;100879.63;;;-0.57;87.68
78354;BME280;67629;46.040;18.232;2023-02-28T06:45:24;100870.63;;;-0.56;88.07
78354;BME280;67629;46.040;18.232;2023-02-28T06:46:20;100881.78;;;-0.61;86.84
78354;BME280;67629;46.040;18.232;2023-02-28T06:47:02;100883.34;;;-0.58;87.21
78354;BME280;67629;46.040;18.232;2023-02-28T06:47:59;100879.34;;;-0.54;87.50
78354;BME280;67629;46.040;18.232;2023-02-28T06:48:45;100894.06;;;-0.68;87.09
78354;BME280;67629;46.040;18.232;2023-02-28T06:50:11;100883.91;;;-0.64;88.42
78354;BME280;67629;46.040;18.232;2023-02-28T06:51:40;100890.41;;;-0.67;87.71
78354;BME280;67629;46.040;18.232;2023-02-28T06:52:24;100889.66;;;-0.69;87.87
78354;BME280;67629;46.040;18.232;2023-02-28T06:53:06;100886.00;;;-0.68;88.17
78354;BME280;67629;46.040;18.232;2023-02-28T06:54:31;100894.59;;;-0.54;87.40
78354;BME280;67629;46.040;18.232;2023-02-28T06:55:13;100887.84;;;-0.59;87.09
78354;BME280;67629;46.040;18.232;2023-02-28T06:56:05;100888.81;;;-0.60;87.51
78354;BME280;67629;46.040;18.232;2023-02-28T06:56:49;100897.28;;;-0.54;87.46
78354;BME280;67629;46.040;18.232;2023-02-28T06:57:33;100895.75;;;-0.47;87.41
78354;BME280;67629;46.040;18.232;2023-02-28T06:58:14;100895.75;;;-0.47;87.80
78354;BME280;67629;46.040;18.232;2023-02-28T06:59:02;100896.03;;;-0.50;87.49
78354;BME280;67629;46.040;18.232;2023-02-28T07:00:11;100894.75;;;-0.56;87.32
78354;BME280;67629;46.040;18.232;2023-02-28T07:01:32;100896.88;;;-0.60;86.92
78354;BME280;67629;46.040;18.232;2023-02-28T07:02:14;100892.53;;;-0.61;87.45
78354;BME280;67629;46.040;18.232;2023-02-28T07:02:54;100899.28;;;-0.57;86.75
78354;BME280;67629;46.040;18.232;2023-02-28T07:03:42;100893.06;;;-0.57;87.08
78354;BME280;67629;46.040;18.232;2023-02-28T07:04:22;100897.59;;;-0.57;88.45
78354;BME280;67629;46.040;18.232;2023-02-28T07:06:05;100893.22;;;-0.49;87.71
78354;BME280;67629;46.040;18.232;2023-02-28T07:08:03;100886.44;;;-0.53;87.19
78354;BME280;67629;46.040;18.232;2023-02-28T07:10:23;100886.16;;;-0.40;86.81
78354;BME280;67629;46.040;18.232;2023-02-28T07:13:03;100891.50;;;-0.50;85.27
78354;BME280;67629;46.040;18.232;2023-02-28T07:13:45;100882.03;;;-0.54;85.79
78354;BME280;67629;46.040;18.232;2023-02-28T07:14:36;100881.06;;;-0.53;86.06
78354;BME280;67629;46.040;18.232;2023-02-28T07:15:24;100879.94;;;-0.50;84.71
78354;BME280;67629;46.040;18.232;2023-02-28T07:16:06;100884.72;;;-0.54;84.75
78354;BME280;67629;46.040;18.232;2023-02-28T07:18:18;100879.78;;;-0.59;85.13
78354;BME280;67629;46.040;18.232;2023-02-28T07:20:01;100882.91;;;-0.53;84.91
78354;BME280;67629;46.040;18.232;2023-02-28T07:21:19;100885.28;;;-0.50;84.32
78354;BME280;67629;46.040;18.232;2023-02-28T07:21:59;100869.88;;;-0.48;84.27
78354;BME280;67629;46.040;18.232;2023-02-28T07:22:42;100881.06;;;-0.53;82.69
78354;BME280;67629;46.040;18.232;2023-02-28T07:23:22;100877.69;;;-0.55;82.97
78354;BME280;67629;46.040;18.232;2023-02-28T07:24:02;100876.69;;;-0.54;83.84
78354;BME280;67629;46.040;18.232;2023-02-28T07:24:42;100881.78;;;-0.61;84.72
78354;BME280;67629;46.040;18.232;2023-02-28T07:26:25;100882.03;;;-0.54;83.81
78354;BME280;67629;46.040;18.232;2023-02-28T07:27:44;100877.53;;;-0.44;84.21
78354;BME280;67629;46.040;18.232;2023-02-28T07:30:07;100884.56;;;-0.33;84.60
78354;BME280;67629;46.040;18.232;2023-02-28T07:31:35;100878.09;;;-0.40;84.20